sensor_id;sensor_type;location;lat;lon;timestamp;P1;durP1;ratioP1;P2;durP2;ratioP2
48861;SDS011;34681;49.188;-0.374;2023-05-10T00:00:20;1.93;;;1.20;;
48861;SDS011;34681;49.188;-0.374;2023-05-10T00:02:47;3.97;;;1.53;;
48861;SDS011;34681;49.188;-0.374;2023-05-10T00:05:13;5.93;;;1.47;;
48861;SDS011;34681;49.188;-0.374;2023-05-10T00:07:38;4.27;;;1.60;;
48861;SDS011;34681;49.188;-0.374;2023-05-10T00:10:04;2.77;;;1.67;;
48861;SDS011;34681;49.188;-0.374;2023-05-10T00:12:29;2.83;;;1.53;;
48861;SDS011;34681;49.188;-0.374;2023-05-10T00:14:55;1.50;;;1.40;;
48861;SDS011;34681;49.188;-0.374;2023-05-10T00:17:20;2.37;;;1.37;;
48861;SDS011;34681;49.188;-0.374;2023-05-10T00:19:45;2.53;;;1.50;;
48861;SDS011;34681;49.188;-0.374;2023-05-10T00:22:11;2.53;;;1.60;;
48861;SDS011;34681;49.188;-0.374;2023-05-10T00:24:36;4.13;;;2.97;;
48861;SDS011;34681;49.188;-0.374;2023-05-10T00:27:01;6.07;;;2.70;;
48861;SDS011;34681;49.188;-0.374;2023-05-10T00:29:29;2.80;;;2.03;;
48861;SDS011;34681;49.188;-0.374;2023-05-10T00:31:54;2.53;;;1.70;;
48861;SDS011;34681;49.188;-0.374;2023-05-10T00:34:19;5.23;;;2.20;;
48861;SDS011;34681;49.188;-0.374;2023-05-10T00:36:45;3.53;;;2.43;;
48861;SDS011;34681;49.188;-0.374;2023-05-10T00:39:10;5.77;;;2.70;;
48861;SDS011;34681;49.188;-0.374;2023-05-10T00:41:36;3.00;;;2.70;;
48861;SDS011;34681;49.188;-0.374;2023-05-10T00:44:01;5.10;;;2.30;;
48861;SDS011;34681;49.188;-0.374;2023-05-10T00:46:27;4.73;;;2.97;;
48861;SDS011;34681;49.188;-0.374;2023-05-10T00:48:53;9.33;;;3.47;;
48861;SDS011;34681;49.188;-0.374;2023-05-10T00:51:18;10.70;;;3.03;;
48861;SDS011;34681;49.188;-0.374;2023-05-10T00:53:45;6.50;;;2.77;;
48861;SDS011;34681;49.188;-0.374;2023-05-10T00:56:10;11.77;;;3.30;;
48861;SDS011;34681;49.188;-0.374;2023-05-10T00:58:37;5.73;;;3.27;;
48861;SDS011;34681;49.188;-0.374;2023-05-10T01:01:03;4.10;;;2.73;;
48861;SDS011;34681;49.188;-0.374;2023-05-10T01:03:29;4.20;;;2.97;;
48861;SDS011;34681;49.188;-0.374;2023-05-10T01:05:57;9.77;;;3.93;;
48861;SDS011;34681;49.188;-0.374;2023-05-10T01:08:22;4.27;;;2.83;;
48861;SDS011;34681;49.188;-0.374;2023-05-10T01:10:47;8.27;;;2.47;;
48861;SDS011;34681;49.188;-0.374;2023-05-10T01:13:16;7.43;;;2.90;;
48861;SDS011;34681;49.188;-0.374;2023-05-10T01:15:48;11.23;;;2.93;;
48861;SDS011;34681;49.188;-0.374;2023-05-10T01:18:14;2.93;;;2.33;;
48861;SDS011;34681;49.188;-0.374;2023-05-10T01:20:44;10.23;;;3.23;;
48861;SDS011;34681;49.188;-0.374;2023-05-10T01:31:22;6.73;;;3.17;;
48861;SDS011;34681;49.188;-0.374;2023-05-10T01:34:07;8.10;;;4.00;;
48861;SDS011;34681;49.188;-0.374;2023-05-10T01:36:43;14.20;;;3.30;;
48861;SDS011;34681;49.188;-0.374;2023-05-10T01:39:17;11.30;;;3.27;;
48861;SDS011;34681;49.188;-0.374;2023-05-10T01:41:51;9.83;;;3.23;;
48861;SDS011;34681;49.188;-0.374;2023-05-10T01:44:31;11.03;;;3.30;;
48861;SDS011;34681;49.188;-0.374;2023-05-10T01:47:10;7.37;;;2.50;;
48861;SDS011;34681;49.188;-0.374;2023-05-10T01:49:41;8.00;;;3.43;;
48861;SDS011;34681;49.188;-0.374;2023-05-10T01:52:12;5.93;;;3.27;;
48861;SDS011;34681;49.188;-0.374;2023-05-10T01:54:42;8.00;;;3.57;;
48861;SDS011;34681;49.188;-0.374;2023-05-10T01:57:13;11.47;;;3.47;;
48861;SDS011;34681;49.188;-0.374;2023-05-10T01:59:42;10.83;;;3.20;;
48861;SDS011;34681;49.188;-0.374;2023-05-10T02:02:10;9.10;;;2.67;;
48861;SDS011;34681;49.188;-0.374;2023-05-10T02:04:37;5.83;;;2.80;;
48861;SDS011;34681;49.188;-0.374;2023-05-10T02:07:04;11.63;;;3.97;;
48861;SDS011;34681;49.188;-0.374;2023-05-10T02:09:32;13.87;;;3.80;;
48861;SDS011;34681;49.188;-0.374;2023-05-10T02:11:59;8.93;;;3.50;;
48861;SDS011;34681;49.188;-0.374;2023-05-10T02:14:27;10.77;;;3.50;;
48861;SDS011;34681;49.188;-0.374;2023-05-10T02:16:55;13.90;;;3.20;;
48861;SDS011;34681;49.188;-0.374;2023-05-10T02:19:23;11.53;;;3.57;;
48861;SDS011;34681;49.188;-0.374;2023-05-10T02:21:50;10.87;;;3.40;;
48861;SDS011;34681;49.188;-0.374;2023-05-10T02:24:16;13.23;;;3.87;;
48861;SDS011;34681;49.188;-0.374;2023-05-10T02:26:43;12.50;;;4.03;;
48861;SDS011;34681;49.188;-0.374;2023-05-10T02:29:10;14.43;;;3.87;;
48861;SDS011;34681;49.188;-0.374;2023-05-10T02:31:37;16.53;;;5.00;;
48861;SDS011;34681;49.188;-0.374;2023-05-10T02:34:03;18.03;;;4.40;;
48861;SDS011;34681;49.188;-0.374;2023-05-10T02:36:31;14.70;;;4.30;;
48861;SDS011;34681;49.188;-0.374;2023-05-10T02:38:58;10.13;;;3.80;;
48861;SDS011;34681;49.188;-0.374;2023-05-10T02:41:26;12.60;;;4.10;;
48861;SDS011;34681;49.188;-0.374;2023-05-10T02:43:53;13.53;;;4.50;;
48861;SDS011;34681;49.188;-0.374;2023-05-10T02:46:22;17.03;;;4.23;;
48861;SDS011;34681;49.188;-0.374;2023-05-10T02:48:48;11.03;;;3.93;;
48861;SDS011;34681;49.188;-0.374;2023-05-10T02:51:13;14.70;;;4.00;;
48861;SDS011;34681;49.188;-0.374;2023-05-10T02:53:43;13.13;;;4.17;;
48861;SDS011;34681;49.188;-0.374;2023-05-10T02:56:14;21.17;;;4.73;;
48861;SDS011;34681;49.188;-0.374;2023-05-10T02:58:44;17.70;;;4.43;;
48861;SDS011;34681;49.188;-0.374;2023-05-10T03:01:10;18.80;;;4.90;;
48861;SDS011;34681;49.188;-0.374;2023-05-10T03:03:36;14.50;;;4.83;;
48861;SDS011;34681;49.188;-0.374;2023-05-10T03:06:01;17.70;;;5.20;;
48861;SDS011;34681;49.188;-0.374;2023-05-10T03:08:26;16.87;;;4.83;;
48861;SDS011;34681;49.188;-0.374;2023-05-10T03:13:40;15.60;;;4.87;;
48861;SDS011;34681;49.188;-0.374;2023-05-10T03:16:25;17.63;;;5.07;;
48861;SDS011;34681;49.188;-0.374;2023-05-10T03:21:37;14.77;;;4.93;;
48861;SDS011;34681;49.188;-0.374;2023-05-10T03:24:07;18.80;;;5.20;;
48861;SDS011;34681;49.188;-0.374;2023-05-10T03:26:36;26.53;;;5.83;;
48861;SDS011;34681;49.188;-0.374;2023-05-10T03:29:02;17.20;;;5.83;;
48861;SDS011;34681;49.188;-0.374;2023-05-10T03:31:29;17.50;;;5.43;;
48861;SDS011;34681;49.188;-0.374;2023-05-10T03:33:55;18.43;;;4.57;;
48861;SDS011;34681;49.188;-0.374;2023-05-10T03:36:20;22.70;;;4.93;;
48861;SDS011;34681;49.188;-0.374;2023-05-10T03:38:46;13.27;;;4.67;;
48861;SDS011;34681;49.188;-0.374;2023-05-10T03:41:11;16.30;;;4.63;;
48861;SDS011;34681;49.188;-0.374;2023-05-10T03:43:37;15.90;;;5.70;;
48861;SDS011;34681;49.188;-0.374;2023-05-10T03:46:03;26.33;;;5.70;;
48861;SDS011;34681;49.188;-0.374;2023-05-10T03:48:29;24.30;;;5.50;;
48861;SDS011;34681;49.188;-0.374;2023-05-10T03:50:55;24.87;;;5.10;;
48861;SDS011;34681;49.188;-0.374;2023-05-10T03:53:20;24.33;;;5.33;;
48861;SDS011;34681;49.188;-0.374;2023-05-10T03:55:45;18.53;;;4.90;;
48861;SDS011;34681;49.188;-0.374;2023-05-10T03:58:11;20.03;;;5.07;;
48861;SDS011;34681;49.188;-0.374;2023-05-10T04:00:37;13.67;;;5.30;;
48861;SDS011;34681;49.188;-0.374;2023-05-10T04:03:02;21.40;;;4.77;;
48861;SDS011;34681;49.188;-0.374;2023-05-10T04:05:28;18.37;;;5.90;;
48861;SDS011;34681;49.188;-0.374;2023-05-10T04:07:53;18.67;;;4.57;;
48861;SDS011;34681;49.188;-0.374;2023-05-10T04:10:19;23.17;;;5.50;;
48861;SDS011;34681;49.188;-0.374;2023-05-10T04:12:46;24.53;;;5.17;;
48861;SDS011;34681;49.188;-0.374;2023-05-10T04:15:11;20.77;;;4.40;;
48861;SDS011;34681;49.188;-0.374;2023-05-10T04:17:36;26.53;;;5.63;;
48861;SDS011;34681;49.188;-0.374;2023-05-10T04:20:02;17.33;;;4.10;;
48861;SDS011;34681;49.188;-0.374;2023-05-10T04:22:28;22.47;;;5.93;;
48861;SDS011;34681;49.188;-0.374;2023-05-10T04:24:54;15.80;;;4.00;;
48861;SDS011;34681;49.188;-0.374;2023-05-10T04:27:19;16.00;;;6.00;;
48861;SDS011;34681;49.188;-0.374;2023-05-10T04:29:44;13.17;;;4.60;;
48861;SDS011;34681;49.188;-0.374;2023-05-10T04:32:10;15.17;;;4.63;;
48861;SDS011;34681;49.188;-0.374;2023-05-10T04:34:36;16.53;;;4.57;;
48861;SDS011;34681;49.188;-0.374;2023-05-10T04:37:01;19.97;;;6.00;;
48861;SDS011;34681;49.188;-0.374;2023-05-10T04:39:27;20.63;;;5.50;;
48861;SDS011;34681;49.188;-0.374;2023-05-10T04:41:52;15.40;;;5.00;;
48861;SDS011;34681;49.188;-0.374;2023-05-10T04:44:17;11.77;;;4.50;;
48861;SDS011;34681;49.188;-0.374;2023-05-10T04:46:43;17.57;;;5.10;;
48861;SDS011;34681;49.188;-0.374;2023-05-10T04:49:08;13.50;;;4.33;;
48861;SDS011;34681;49.188;-0.374;2023-05-10T04:51:33;16.63;;;5.10;;
48861;SDS011;34681;49.188;-0.374;2023-05-10T04:53:59;13.90;;;5.73;;
48861;SDS011;34681;49.188;-0.374;2023-05-10T04:56:24;17.90;;;4.73;;
48861;SDS011;34681;49.188;-0.374;2023-05-10T04:58:50;23.80;;;5.17;;
48861;SDS011;34681;49.188;-0.374;2023-05-10T05:01:15;21.10;;;5.47;;
48861;SDS011;34681;49.188;-0.374;2023-05-10T05:03:40;18.23;;;7.30;;
48861;SDS011;34681;49.188;-0.374;2023-05-10T05:06:06;17.27;;;5.40;;
48861;SDS011;34681;49.188;-0.374;2023-05-10T05:08:31;19.40;;;5.53;;
48861;SDS011;34681;49.188;-0.374;2023-05-10T05:10:57;16.27;;;4.73;;
48861;SDS011;34681;49.188;-0.374;2023-05-10T05:13:22;13.23;;;5.17;;
48861;SDS011;34681;49.188;-0.374;2023-05-10T05:15:47;13.30;;;3.93;;
48861;SDS011;34681;49.188;-0.374;2023-05-10T05:18:12;17.83;;;4.30;;
48861;SDS011;34681;49.188;-0.374;2023-05-10T05:20:38;10.50;;;4.27;;
48861;SDS011;34681;49.188;-0.374;2023-05-10T05:23:03;16.90;;;4.00;;
48861;SDS011;34681;49.188;-0.374;2023-05-10T05:25:28;21.43;;;5.10;;
48861;SDS011;34681;49.188;-0.374;2023-05-10T05:27:54;21.83;;;5.20;;
48861;SDS011;34681;49.188;-0.374;2023-05-10T05:30:19;12.60;;;3.97;;
48861;SDS011;34681;49.188;-0.374;2023-05-10T05:32:44;18.53;;;5.00;;
48861;SDS011;34681;49.188;-0.374;2023-05-10T05:35:11;20.80;;;4.40;;
48861;SDS011;34681;49.188;-0.374;2023-05-10T05:37:37;22.13;;;5.80;;
48861;SDS011;34681;49.188;-0.374;2023-05-10T05:40:03;15.37;;;4.53;;
48861;SDS011;34681;49.188;-0.374;2023-05-10T05:42:29;12.40;;;4.03;;
48861;SDS011;34681;49.188;-0.374;2023-05-10T05:44:56;17.30;;;4.33;;
48861;SDS011;34681;49.188;-0.374;2023-05-10T05:47:21;13.30;;;3.80;;
48861;SDS011;34681;49.188;-0.374;2023-05-10T05:49:47;14.60;;;5.53;;
48861;SDS011;34681;49.188;-0.374;2023-05-10T05:52:12;17.27;;;5.40;;
48861;SDS011;34681;49.188;-0.374;2023-05-10T05:54:38;14.50;;;4.27;;
48861;SDS011;34681;49.188;-0.374;2023-05-10T05:57:03;14.67;;;3.90;;
48861;SDS011;34681;49.188;-0.374;2023-05-10T05:59:29;12.20;;;4.10;;
48861;SDS011;34681;49.188;-0.374;2023-05-10T06:01:54;12.37;;;5.23;;
48861;SDS011;34681;49.188;-0.374;2023-05-10T06:04:19;12.03;;;4.50;;
48861;SDS011;34681;49.188;-0.374;2023-05-10T06:06:45;14.97;;;4.00;;
48861;SDS011;34681;49.188;-0.374;2023-05-10T06:09:10;18.23;;;4.53;;
48861;SDS011;34681;49.188;-0.374;2023-05-10T06:11:36;17.07;;;4.43;;
48861;SDS011;34681;49.188;-0.374;2023-05-10T06:14:02;22.83;;;4.63;;
48861;SDS011;34681;49.188;-0.374;2023-05-10T06:16:29;11.13;;;3.87;;
48861;SDS011;34681;49.188;-0.374;2023-05-10T06:18:55;9.90;;;4.10;;
48861;SDS011;34681;49.188;-0.374;2023-05-10T06:21:20;14.53;;;3.90;;
48861;SDS011;34681;49.188;-0.374;2023-05-10T06:23:46;11.70;;;4.33;;
48861;SDS011;34681;49.188;-0.374;2023-05-10T06:26:11;12.73;;;3.90;;
48861;SDS011;34681;49.188;-0.374;2023-05-10T06:28:38;15.83;;;4.30;;
48861;SDS011;34681;49.188;-0.374;2023-05-10T06:31:04;10.43;;;4.00;;
48861;SDS011;34681;49.188;-0.374;2023-05-10T06:33:29;13.40;;;3.90;;
48861;SDS011;34681;49.188;-0.374;2023-05-10T06:35:55;10.10;;;4.13;;
48861;SDS011;34681;49.188;-0.374;2023-05-10T06:38:20;10.93;;;3.90;;
48861;SDS011;34681;49.188;-0.374;2023-05-10T06:40:46;9.00;;;3.93;;
48861;SDS011;34681;49.188;-0.374;2023-05-10T06:43:11;12.63;;;3.77;;
48861;SDS011;34681;49.188;-0.374;2023-05-10T06:45:37;14.37;;;5.13;;
48861;SDS011;34681;49.188;-0.374;2023-05-10T06:48:02;12.30;;;3.70;;
48861;SDS011;34681;49.188;-0.374;2023-05-10T06:50:27;7.97;;;3.10;;
48861;SDS011;34681;49.188;-0.374;2023-05-10T06:52:53;10.77;;;3.13;;
48861;SDS011;34681;49.188;-0.374;2023-05-10T06:55:18;10.07;;;3.57;;
48861;SDS011;34681;49.188;-0.374;2023-05-10T06:57:43;7.37;;;4.07;;
48861;SDS011;34681;49.188;-0.374;2023-05-10T07:00:09;6.60;;;3.20;;
48861;SDS011;34681;49.188;-0.374;2023-05-10T07:02:35;9.47;;;3.30;;
48861;SDS011;34681;49.188;-0.374;2023-05-10T07:05:00;7.70;;;3.27;;
48861;SDS011;34681;49.188;-0.374;2023-05-10T07:07:27;7.73;;;3.30;;
48861;SDS011;34681;49.188;-0.374;2023-05-10T07:09:52;8.13;;;3.60;;
48861;SDS011;34681;49.188;-0.374;2023-05-10T07:12:18;6.90;;;2.93;;
48861;SDS011;34681;49.188;-0.374;2023-05-10T07:14:43;8.47;;;3.30;;
48861;SDS011;34681;49.188;-0.374;2023-05-10T07:17:09;7.87;;;3.57;;
48861;SDS011;34681;49.188;-0.374;2023-05-10T07:19:34;8.17;;;3.80;;
48861;SDS011;34681;49.188;-0.374;2023-05-10T07:22:00;11.10;;;3.60;;
48861;SDS011;34681;49.188;-0.374;2023-05-10T07:24:26;9.03;;;3.83;;
48861;SDS011;34681;49.188;-0.374;2023-05-10T07:26:52;5.60;;;3.20;;
48861;SDS011;34681;49.188;-0.374;2023-05-10T07:29:17;5.60;;;3.40;;
48861;SDS011;34681;49.188;-0.374;2023-05-10T07:31:42;9.43;;;3.10;;
48861;SDS011;34681;49.188;-0.374;2023-05-10T07:34:08;10.37;;;3.83;;
48861;SDS011;34681;49.188;-0.374;2023-05-10T07:36:34;6.67;;;3.53;;
48861;SDS011;34681;49.188;-0.374;2023-05-10T07:38:59;7.03;;;3.30;;
48861;SDS011;34681;49.188;-0.374;2023-05-10T07:41:25;7.97;;;3.43;;
48861;SDS011;34681;49.188;-0.374;2023-05-10T07:43:50;6.67;;;3.20;;
48861;SDS011;34681;49.188;-0.374;2023-05-10T07:46:16;6.33;;;3.30;;
48861;SDS011;34681;49.188;-0.374;2023-05-10T07:48:41;6.33;;;3.50;;
48861;SDS011;34681;49.188;-0.374;2023-05-10T07:51:06;6.93;;;3.03;;
48861;SDS011;34681;49.188;-0.374;2023-05-10T07:53:34;5.87;;;2.90;;
48861;SDS011;34681;49.188;-0.374;2023-05-10T07:56:19;7.60;;;3.00;;
48861;SDS011;34681;49.188;-0.374;2023-05-10T07:58:57;5.00;;;3.13;;
48861;SDS011;34681;49.188;-0.374;2023-05-10T08:01:26;5.27;;;2.73;;
48861;SDS011;34681;49.188;-0.374;2023-05-10T08:03:54;7.93;;;3.20;;
48861;SDS011;34681;49.188;-0.374;2023-05-10T08:06:20;7.73;;;3.33;;
48861;SDS011;34681;49.188;-0.374;2023-05-10T08:08:46;5.90;;;3.23;;
48861;SDS011;34681;49.188;-0.374;2023-05-10T08:11:17;6.40;;;2.93;;
48861;SDS011;34681;49.188;-0.374;2023-05-10T08:13:43;5.60;;;2.93;;
48861;SDS011;34681;49.188;-0.374;2023-05-10T08:16:09;7.93;;;2.90;;
48861;SDS011;34681;49.188;-0.374;2023-05-10T08:18:35;4.80;;;3.00;;
48861;SDS011;34681;49.188;-0.374;2023-05-10T08:21:00;5.60;;;2.50;;
48861;SDS011;34681;49.188;-0.374;2023-05-10T08:23:25;7.10;;;3.47;;
48861;SDS011;34681;49.188;-0.374;2023-05-10T08:25:51;4.47;;;2.40;;
48861;SDS011;34681;49.188;-0.374;2023-05-10T08:28:16;8.03;;;3.47;;
48861;SDS011;34681;49.188;-0.374;2023-05-10T08:30:41;9.40;;;4.07;;
48861;SDS011;34681;49.188;-0.374;2023-05-10T08:33:07;9.00;;;3.00;;
48861;SDS011;34681;49.188;-0.374;2023-05-10T08:35:32;9.50;;;2.80;;
48861;SDS011;34681;49.188;-0.374;2023-05-10T08:37:59;7.53;;;3.43;;
48861;SDS011;34681;49.188;-0.374;2023-05-10T08:40:25;6.60;;;3.27;;
48861;SDS011;34681;49.188;-0.374;2023-05-10T08:42:55;5.93;;;2.77;;
48861;SDS011;34681;49.188;-0.374;2023-05-10T08:45:25;7.03;;;3.10;;
48861;SDS011;34681;49.188;-0.374;2023-05-10T08:47:56;9.40;;;3.20;;
48861;SDS011;34681;49.188;-0.374;2023-05-10T08:50:22;7.87;;;3.30;;
48861;SDS011;34681;49.188;-0.374;2023-05-10T08:52:50;4.33;;;2.93;;
48861;SDS011;34681;49.188;-0.374;2023-05-10T08:55:17;4.20;;;2.43;;
48861;SDS011;34681;49.188;-0.374;2023-05-10T08:57:43;7.27;;;2.87;;
48861;SDS011;34681;49.188;-0.374;2023-05-10T09:00:08;10.87;;;3.00;;
48861;SDS011;34681;49.188;-0.374;2023-05-10T09:02:35;6.10;;;2.80;;
48861;SDS011;34681;49.188;-0.374;2023-05-10T09:05:02;4.77;;;2.90;;
48861;SDS011;34681;49.188;-0.374;2023-05-10T09:07:29;9.33;;;4.37;;
48861;SDS011;34681;49.188;-0.374;2023-05-10T09:09:55;5.50;;;2.77;;
48861;SDS011;34681;49.188;-0.374;2023-05-10T09:12:22;6.57;;;2.83;;
48861;SDS011;34681;49.188;-0.374;2023-05-10T09:14:48;5.50;;;2.70;;
48861;SDS011;34681;49.188;-0.374;2023-05-10T09:17:17;8.97;;;3.00;;
48861;SDS011;34681;49.188;-0.374;2023-05-10T09:19:42;6.87;;;3.03;;
48861;SDS011;34681;49.188;-0.374;2023-05-10T09:22:09;3.80;;;2.50;;
48861;SDS011;34681;49.188;-0.374;2023-05-10T09:24:35;5.53;;;2.60;;
48861;SDS011;34681;49.188;-0.374;2023-05-10T09:27:01;7.97;;;3.23;;
48861;SDS011;34681;49.188;-0.374;2023-05-10T09:29:38;6.10;;;2.90;;
48861;SDS011;34681;49.188;-0.374;2023-05-10T09:32:04;5.03;;;2.73;;
48861;SDS011;34681;49.188;-0.374;2023-05-10T09:34:30;7.07;;;3.10;;
48861;SDS011;34681;49.188;-0.374;2023-05-10T09:36:58;5.23;;;2.60;;
48861;SDS011;34681;49.188;-0.374;2023-05-10T09:42:08;7.80;;;3.10;;
48861;SDS011;34681;49.188;-0.374;2023-05-10T09:44:34;5.07;;;2.67;;
48861;SDS011;34681;49.188;-0.374;2023-05-10T09:47:00;7.80;;;3.40;;
48861;SDS011;34681;49.188;-0.374;2023-05-10T09:49:26;6.37;;;2.50;;
48861;SDS011;34681;49.188;-0.374;2023-05-10T09:52:02;8.63;;;3.13;;
48861;SDS011;34681;49.188;-0.374;2023-05-10T09:54:29;5.20;;;2.70;;
48861;SDS011;34681;49.188;-0.374;2023-05-10T09:56:54;5.97;;;2.53;;
48861;SDS011;34681;49.188;-0.374;2023-05-10T09:59:20;8.37;;;3.03;;
48861;SDS011;34681;49.188;-0.374;2023-05-10T10:01:49;5.33;;;2.67;;
48861;SDS011;34681;49.188;-0.374;2023-05-10T10:04:16;5.43;;;2.60;;
48861;SDS011;34681;49.188;-0.374;2023-05-10T10:06:42;6.90;;;2.20;;
48861;SDS011;34681;49.188;-0.374;2023-05-10T10:09:08;5.10;;;2.10;;
48861;SDS011;34681;49.188;-0.374;2023-05-10T10:11:34;5.27;;;2.10;;
48861;SDS011;34681;49.188;-0.374;2023-05-10T10:14:00;4.23;;;2.20;;
48861;SDS011;34681;49.188;-0.374;2023-05-10T10:16:26;6.50;;;1.87;;
48861;SDS011;34681;49.188;-0.374;2023-05-10T10:18:54;3.63;;;1.83;;
48861;SDS011;34681;49.188;-0.374;2023-05-10T10:21:19;6.30;;;2.60;;
48861;SDS011;34681;49.188;-0.374;2023-05-10T10:23:45;4.80;;;2.10;;
48861;SDS011;34681;49.188;-0.374;2023-05-10T10:26:11;4.77;;;1.90;;
48861;SDS011;34681;49.188;-0.374;2023-05-10T10:34:26;9.60;;;2.83;;
48861;SDS011;34681;49.188;-0.374;2023-05-10T10:36:53;8.37;;;2.70;;
48861;SDS011;34681;49.188;-0.374;2023-05-10T10:39:19;7.73;;;3.07;;
48861;SDS011;34681;49.188;-0.374;2023-05-10T10:41:49;6.27;;;3.03;;
48861;SDS011;34681;49.188;-0.374;2023-05-10T10:49:48;8.57;;;3.00;;
48861;SDS011;34681;49.188;-0.374;2023-05-10T10:52:28;8.17;;;3.33;;
48861;SDS011;34681;49.188;-0.374;2023-05-10T10:55:03;6.50;;;2.63;;
48861;SDS011;34681;49.188;-0.374;2023-05-10T11:00:21;6.73;;;3.20;;
48861;SDS011;34681;49.188;-0.374;2023-05-10T11:03:06;8.50;;;3.33;;
48861;SDS011;34681;49.188;-0.374;2023-05-10T11:08:27;7.63;;;2.70;;
48861;SDS011;34681;49.188;-0.374;2023-05-10T11:13:33;9.10;;;2.53;;
48861;SDS011;34681;49.188;-0.374;2023-05-10T11:16:12;7.30;;;3.27;;
48861;SDS011;34681;49.188;-0.374;2023-05-10T11:18:39;8.60;;;3.20;;
48861;SDS011;34681;49.188;-0.374;2023-05-10T11:21:04;2.80;;;1.90;;
48861;SDS011;34681;49.188;-0.374;2023-05-10T11:26:09;1.70;;;1.50;;
48861;SDS011;34681;49.188;-0.374;2023-05-10T11:29:09;3.00;;;1.47;;
48861;SDS011;34681;49.188;-0.374;2023-05-10T11:31:29;3.20;;;1.93;;
48861;SDS011;34681;49.188;-0.374;2023-05-10T11:33:55;3.63;;;1.50;;
48861;SDS011;34681;49.188;-0.374;2023-05-10T11:36:26;2.97;;;1.30;;
48861;SDS011;34681;49.188;-0.374;2023-05-10T11:38:53;4.70;;;1.70;;
48861;SDS011;34681;49.188;-0.374;2023-05-10T11:41:19;1.80;;;1.47;;
48861;SDS011;34681;49.188;-0.374;2023-05-10T11:43:51;3.17;;;1.70;;
48861;SDS011;34681;49.188;-0.374;2023-05-10T11:46:18;4.13;;;2.40;;
48861;SDS011;34681;49.188;-0.374;2023-05-10T11:48:51;5.90;;;2.67;;
48861;SDS011;34681;49.188;-0.374;2023-05-10T11:51:24;2.90;;;2.00;;
48861;SDS011;34681;49.188;-0.374;2023-05-10T11:53:52;6.00;;;2.17;;
48861;SDS011;34681;49.188;-0.374;2023-05-10T11:56:18;3.67;;;2.30;;
48861;SDS011;34681;49.188;-0.374;2023-05-10T11:58:51;3.50;;;2.00;;
48861;SDS011;34681;49.188;-0.374;2023-05-10T12:01:18;3.33;;;2.27;;
48861;SDS011;34681;49.188;-0.374;2023-05-10T12:03:43;8.10;;;2.23;;
48861;SDS011;34681;49.188;-0.374;2023-05-10T12:06:09;4.17;;;2.03;;
48861;SDS011;34681;49.188;-0.374;2023-05-10T12:08:34;3.37;;;1.97;;
48861;SDS011;34681;49.188;-0.374;2023-05-10T12:11:04;6.30;;;2.27;;
48861;SDS011;34681;49.188;-0.374;2023-05-10T12:13:39;6.07;;;2.50;;
48861;SDS011;34681;49.188;-0.374;2023-05-10T12:16:21;6.87;;;2.80;;
48861;SDS011;34681;49.188;-0.374;2023-05-10T12:18:51;7.87;;;2.60;;
48861;SDS011;34681;49.188;-0.374;2023-05-10T12:21:20;6.93;;;2.80;;
48861;SDS011;34681;49.188;-0.374;2023-05-10T12:23:50;6.30;;;2.60;;
48861;SDS011;34681;49.188;-0.374;2023-05-10T12:26:16;8.30;;;2.57;;
48861;SDS011;34681;49.188;-0.374;2023-05-10T12:28:42;7.27;;;2.57;;
48861;SDS011;34681;49.188;-0.374;2023-05-10T12:31:08;7.70;;;2.80;;
48861;SDS011;34681;49.188;-0.374;2023-05-10T12:33:36;4.90;;;2.40;;
48861;SDS011;34681;49.188;-0.374;2023-05-10T12:36:07;7.57;;;2.73;;
48861;SDS011;34681;49.188;-0.374;2023-05-10T12:38:34;9.93;;;2.73;;
48861;SDS011;34681;49.188;-0.374;2023-05-10T12:41:03;5.70;;;2.10;;
48861;SDS011;34681;49.188;-0.374;2023-05-10T12:43:33;6.67;;;2.50;;
48861;SDS011;34681;49.188;-0.374;2023-05-10T12:46:10;3.70;;;2.30;;
48861;SDS011;34681;49.188;-0.374;2023-05-10T12:48:40;8.97;;;2.57;;
48861;SDS011;34681;49.188;-0.374;2023-05-10T12:51:06;5.47;;;2.50;;
48861;SDS011;34681;49.188;-0.374;2023-05-10T12:53:37;5.00;;;2.43;;
48861;SDS011;34681;49.188;-0.374;2023-05-10T12:56:03;3.87;;;2.10;;
48861;SDS011;34681;49.188;-0.374;2023-05-10T12:58:28;5.53;;;2.60;;
48861;SDS011;34681;49.188;-0.374;2023-05-10T13:00:54;7.63;;;2.47;;
48861;SDS011;34681;49.188;-0.374;2023-05-10T13:03:21;5.40;;;2.33;;
48861;SDS011;34681;49.188;-0.374;2023-05-10T13:05:46;4.67;;;2.17;;
48861;SDS011;34681;49.188;-0.374;2023-05-10T13:08:12;3.00;;;2.30;;
48861;SDS011;34681;49.188;-0.374;2023-05-10T13:10:37;5.97;;;2.53;;
48861;SDS011;34681;49.188;-0.374;2023-05-10T13:13:02;4.67;;;2.33;;
48861;SDS011;34681;49.188;-0.374;2023-05-10T13:15:28;5.33;;;2.70;;
48861;SDS011;34681;49.188;-0.374;2023-05-10T13:17:54;5.03;;;2.37;;
48861;SDS011;34681;49.188;-0.374;2023-05-10T13:20:19;6.33;;;2.40;;
48861;SDS011;34681;49.188;-0.374;2023-05-10T13:22:45;6.70;;;2.37;;
48861;SDS011;34681;49.188;-0.374;2023-05-10T13:25:11;5.80;;;1.93;;
48861;SDS011;34681;49.188;-0.374;2023-05-10T13:27:37;5.67;;;2.83;;
48861;SDS011;34681;49.188;-0.374;2023-05-10T13:30:04;8.13;;;2.80;;
48861;SDS011;34681;49.188;-0.374;2023-05-10T13:32:30;4.87;;;2.20;;
48861;SDS011;34681;49.188;-0.374;2023-05-10T13:34:55;5.17;;;2.70;;
48861;SDS011;34681;49.188;-0.374;2023-05-10T13:37:21;5.57;;;2.90;;
48861;SDS011;34681;49.188;-0.374;2023-05-10T13:39:46;6.10;;;2.60;;
48861;SDS011;34681;49.188;-0.374;2023-05-10T13:42:12;8.67;;;3.00;;
48861;SDS011;34681;49.188;-0.374;2023-05-10T13:44:38;9.57;;;3.23;;
48861;SDS011;34681;49.188;-0.374;2023-05-10T13:47:04;5.43;;;2.50;;
48861;SDS011;34681;49.188;-0.374;2023-05-10T13:49:29;8.40;;;2.70;;
48861;SDS011;34681;49.188;-0.374;2023-05-10T13:51:54;7.00;;;2.77;;
48861;SDS011;34681;49.188;-0.374;2023-05-10T13:54:20;8.90;;;3.50;;
48861;SDS011;34681;49.188;-0.374;2023-05-10T13:56:47;8.03;;;3.17;;
48861;SDS011;34681;49.188;-0.374;2023-05-10T13:59:13;3.53;;;2.70;;
48861;SDS011;34681;49.188;-0.374;2023-05-10T14:01:39;13.30;;;3.73;;
48861;SDS011;34681;49.188;-0.374;2023-05-10T14:04:10;6.47;;;2.70;;
48861;SDS011;34681;49.188;-0.374;2023-05-10T14:06:36;4.80;;;2.33;;
48861;SDS011;34681;49.188;-0.374;2023-05-10T14:09:02;4.97;;;2.37;;
48861;SDS011;34681;49.188;-0.374;2023-05-10T14:11:28;3.90;;;2.13;;
48861;SDS011;34681;49.188;-0.374;2023-05-10T14:13:53;6.37;;;1.80;;
48861;SDS011;34681;49.188;-0.374;2023-05-10T14:16:19;6.13;;;2.60;;
48861;SDS011;34681;49.188;-0.374;2023-05-10T14:18:45;4.70;;;2.13;;
48861;SDS011;34681;49.188;-0.374;2023-05-10T14:21:11;6.37;;;2.80;;
48861;SDS011;34681;49.188;-0.374;2023-05-10T14:23:36;6.20;;;2.37;;
48861;SDS011;34681;49.188;-0.374;2023-05-10T14:26:01;5.90;;;2.63;;
48861;SDS011;34681;49.188;-0.374;2023-05-10T14:28:27;4.17;;;1.70;;
48861;SDS011;34681;49.188;-0.374;2023-05-10T14:30:53;6.23;;;2.50;;
48861;SDS011;34681;49.188;-0.374;2023-05-10T14:33:18;4.63;;;2.60;;
48861;SDS011;34681;49.188;-0.374;2023-05-10T14:35:44;5.13;;;2.50;;
48861;SDS011;34681;49.188;-0.374;2023-05-10T14:38:10;7.10;;;2.50;;
48861;SDS011;34681;49.188;-0.374;2023-05-10T14:40:35;5.13;;;2.47;;
48861;SDS011;34681;49.188;-0.374;2023-05-10T14:43:01;4.07;;;2.33;;
48861;SDS011;34681;49.188;-0.374;2023-05-10T14:45:26;4.83;;;2.23;;
48861;SDS011;34681;49.188;-0.374;2023-05-10T14:47:51;7.53;;;2.87;;
48861;SDS011;34681;49.188;-0.374;2023-05-10T14:50:17;6.10;;;2.80;;
48861;SDS011;34681;49.188;-0.374;2023-05-10T14:52:43;4.57;;;2.27;;
48861;SDS011;34681;49.188;-0.374;2023-05-10T14:55:09;4.73;;;2.83;;
48861;SDS011;34681;49.188;-0.374;2023-05-10T14:57:34;7.07;;;3.33;;
48861;SDS011;34681;49.188;-0.374;2023-05-10T15:00:00;10.57;;;2.60;;
48861;SDS011;34681;49.188;-0.374;2023-05-10T15:02:25;5.90;;;2.40;;
48861;SDS011;34681;49.188;-0.374;2023-05-10T15:04:50;6.90;;;3.33;;
48861;SDS011;34681;49.188;-0.374;2023-05-10T15:07:16;4.00;;;2.40;;